sensor_id;sensor_type;location;lat;lon;timestamp;noise_LAeq;noise_LA_min;noise_LA_max;noise_LA01;noise_LA95
76339;Laerm;26644;50.248;19.032;2024-01-11T00:02:36;50.24;44.97;56.48;;
76339;Laerm;26644;50.248;19.032;2024-01-11T00:05:40;48.52;43.36;54.21;;
76339;Laerm;26644;50.248;19.032;2024-01-11T00:08:46;49.28;44.25;54.48;;
76339;Laerm;26644;50.248;19.032;2024-01-11T00:11:53;48.02;42.86;52.59;;
76339;Laerm;26644;50.248;19.032;2024-01-11T00:14:58;47.46;42.71;53.80;;
76339;Laerm;26644;50.248;19.032;2024-01-11T00:18:04;48.30;42.60;55.24;;
76339;Laerm;26644;50.248;19.032;2024-01-11T00:21:09;49.22;44.07;54.98;;
76339;Laerm;26644;50.248;19.032;2024-01-11T00:24:13;48.66;43.99;54.01;;
76339;Laerm;26644;50.248;19.032;2024-01-11T00:27:21;48.86;43.14;54.18;;
76339;Laerm;26644;50.248;19.032;2024-01-11T00:30:26;50.04;43.25;61.54;;
76339;Laerm;26644;50.248;19.032;2024-01-11T00:33:31;49.76;43.97;70.48;;
76339;Laerm;26644;50.248;19.032;2024-01-11T00:36:36;48.79;43.63;54.23;;
76339;Laerm;26644;50.248;19.032;2024-01-11T00:39:41;51.01;42.42;59.33;;
76339;Laerm;26644;50.248;19.032;2024-01-11T00:42:48;48.17;43.95;53.30;;
76339;Laerm;26644;50.248;19.032;2024-01-11T00:45:53;48.63;42.68;53.83;;
76339;Laerm;26644;50.248;19.032;2024-01-11T00:48:58;47.44;42.19;52.69;;
76339;Laerm;26644;50.248;19.032;2024-01-11T00:52:04;49.77;44.93;57.48;;
76339;Laerm;26644;50.248;19.032;2024-01-11T00:55:08;48.57;43.22;55.37;;
76339;Laerm;26644;50.248;19.032;2024-01-11T00:58:16;50.61;44.21;58.52;;
76339;Laerm;26644;50.248;19.032;2024-01-11T01:01:21;49.67;41.73;57.24;;
76339;Laerm;26644;50.248;19.032;2024-01-11T01:04:26;50.33;42.73;60.48;;
76339;Laerm;26644;50.248;19.032;2024-01-11T01:07:31;50.67;43.76;60.20;;
76339;Laerm;26644;50.248;19.032;2024-01-11T01:10:36;50.74;44.67;59.64;;
76339;Laerm;26644;50.248;19.032;2024-01-11T01:13:43;50.28;44.53;56.00;;
76339;Laerm;26644;50.248;19.032;2024-01-11T01:16:48;49.82;43.73;58.52;;
76339;Laerm;26644;50.248;19.032;2024-01-11T01:19:53;47.36;42.23;53.15;;
76339;Laerm;26644;50.248;19.032;2024-01-11T01:22:58;47.09;42.89;52.56;;
76339;Laerm;26644;50.248;19.032;2024-01-11T01:26:03;49.55;44.47;59.13;;
76339;Laerm;26644;50.248;19.032;2024-01-11T01:29:11;50.39;45.63;56.83;;
76339;Laerm;26644;50.248;19.032;2024-01-11T01:32:15;50.72;45.17;60.59;;
76339;Laerm;26644;50.248;19.032;2024-01-11T01:35:20;49.08;42.32;56.26;;
76339;Laerm;26644;50.248;19.032;2024-01-11T01:38:25;49.43;41.67;58.72;;
76339;Laerm;26644;50.248;19.032;2024-01-11T01:41:32;49.61;44.44;55.25;;
76339;Laerm;26644;50.248;19.032;2024-01-11T01:44:39;48.26;41.51;55.92;;
76339;Laerm;26644;50.248;19.032;2024-01-11T01:47:46;49.41;42.35;54.37;;
76339;Laerm;26644;50.248;19.032;2024-01-11T01:50:50;51.14;45.25;59.19;;
76339;Laerm;26644;50.248;19.032;2024-01-11T01:53:57;49.97;42.59;55.66;;
76339;Laerm;26644;50.248;19.032;2024-01-11T01:57:05;49.90;45.56;57.71;;
76339;Laerm;26644;50.248;19.032;2024-01-11T02:00:17;48.56;43.02;55.38;;
76339;Laerm;26644;50.248;19.032;2024-01-11T02:03:26;47.55;41.82;54.64;;
76339;Laerm;26644;50.248;19.032;2024-01-11T02:06:34;50.23;44.14;55.74;;
76339;Laerm;26644;50.248;19.032;2024-01-11T02:09:40;49.41;44.49;54.13;;
76339;Laerm;26644;50.248;19.032;2024-01-11T02:12:46;49.49;42.38;54.61;;
76339;Laerm;26644;50.248;19.032;2024-01-11T02:15:54;50.21;45.13;55.65;;
76339;Laerm;26644;50.248;19.032;2024-01-11T02:18:59;49.64;45.27;54.50;;
76339;Laerm;26644;50.248;19.032;2024-01-11T02:22:15;49.60;42.20;60.59;;
76339;Laerm;26644;50.248;19.032;2024-01-11T02:25:27;50.14;43.84;59.96;;
76339;Laerm;26644;50.248;19.032;2024-01-11T02:28:31;50.06;45.10;58.65;;
76339;Laerm;26644;50.248;19.032;2024-01-11T02:31:37;48.71;43.01;55.44;;
76339;Laerm;26644;50.248;19.032;2024-01-11T02:34:42;49.90;44.85;56.36;;
76339;Laerm;26644;50.248;19.032;2024-01-11T02:37:49;49.63;44.94;55.09;;
76339;Laerm;26644;50.248;19.032;2024-01-11T02:40:57;49.89;42.72;56.17;;
76339;Laerm;26644;50.248;19.032;2024-01-11T02:44:04;49.97;45.23;55.11;;
76339;Laerm;26644;50.248;19.032;2024-01-11T02:47:08;50.18;45.47;55.62;;
76339;Laerm;26644;50.248;19.032;2024-01-11T02:50:13;49.87;44.64;55.40;;
76339;Laerm;26644;50.248;19.032;2024-01-11T02:53:18;49.80;44.14;57.29;;
76339;Laerm;26644;50.248;19.032;2024-01-11T02:56:26;49.66;43.67;55.34;;
76339;Laerm;26644;50.248;19.032;2024-01-11T02:59:30;49.99;44.80;56.67;;
76339;Laerm;26644;50.248;19.032;2024-01-11T03:02:37;48.95;44.67;56.24;;
76339;Laerm;26644;50.248;19.032;2024-01-11T03:05:42;49.16;44.33;54.64;;
76339;Laerm;26644;50.248;19.032;2024-01-11T03:08:47;48.96;44.22;55.91;;
76339;Laerm;26644;50.248;19.032;2024-01-11T03:11:54;48.57;44.52;53.67;;
76339;Laerm;26644;50.248;19.032;2024-01-11T03:15:00;49.11;44.63;54.28;;
76339;Laerm;26644;50.248;19.032;2024-01-11T03:18:04;50.12;45.80;60.71;;
76339;Laerm;26644;50.248;19.032;2024-01-11T03:21:10;50.27;45.06;55.11;;
76339;Laerm;26644;50.248;19.032;2024-01-11T03:24:14;50.43;44.52;56.26;;
76339;Laerm;26644;50.248;19.032;2024-01-11T03:27:22;50.59;45.05;56.91;;
76339;Laerm;26644;50.248;19.032;2024-01-11T03:30:28;51.20;45.48;57.64;;
76339;Laerm;26644;50.248;19.032;2024-01-11T03:33:33;51.24;46.38;56.95;;
76339;Laerm;26644;50.248;19.032;2024-01-11T03:36:38;50.35;46.18;60.02;;
76339;Laerm;26644;50.248;19.032;2024-01-11T03:39:42;49.60;45.22;54.85;;
76339;Laerm;26644;50.248;19.032;2024-01-11T03:42:50;52.20;47.02;60.43;;
76339;Laerm;26644;50.248;19.032;2024-01-11T03:45:55;51.46;47.29;56.92;;
76339;Laerm;26644;50.248;19.032;2024-01-11T03:49:00;51.79;46.32;55.93;;
76339;Laerm;26644;50.248;19.032;2024-01-11T03:52:05;52.46;45.96;60.68;;
76339;Laerm;26644;50.248;19.032;2024-01-11T03:55:11;51.48;46.96;57.96;;
76339;Laerm;26644;50.248;19.032;2024-01-11T03:58:18;51.14;47.42;55.53;;
76339;Laerm;26644;50.248;19.032;2024-01-11T04:01:23;51.63;47.44;56.59;;
76339;Laerm;26644;50.248;19.032;2024-01-11T04:04:28;51.76;47.23;59.14;;
76339;Laerm;26644;50.248;19.032;2024-01-11T04:07:33;52.45;47.51;57.68;;
76339;Laerm;26644;50.248;19.032;2024-01-11T04:10:38;52.63;48.26;57.41;;
76339;Laerm;26644;50.248;19.032;2024-01-11T04:13:46;52.68;48.33;58.04;;
76339;Laerm;26644;50.248;19.032;2024-01-11T04:16:51;53.79;47.72;60.79;;
76339;Laerm;26644;50.248;19.032;2024-01-11T04:19:56;52.91;46.45;62.36;;
76339;Laerm;26644;50.248;19.032;2024-01-11T04:23:00;53.79;49.50;60.67;;
76339;Laerm;26644;50.248;19.032;2024-01-11T04:26:05;52.51;48.61;61.55;;
76339;Laerm;26644;50.248;19.032;2024-01-11T04:29:12;52.59;47.45;61.78;;
76339;Laerm;26644;50.248;19.032;2024-01-11T04:32:18;52.92;46.42;60.36;;
76339;Laerm;26644;50.248;19.032;2024-01-11T04:35:22;54.19;50.48;58.45;;
76339;Laerm;26644;50.248;19.032;2024-01-11T04:38:28;53.86;49.03;58.49;;
76339;Laerm;26644;50.248;19.032;2024-01-11T04:41:34;53.27;48.14;58.10;;
76339;Laerm;26644;50.248;19.032;2024-01-11T04:44:42;54.01;50.41;57.98;;
76339;Laerm;26644;50.248;19.032;2024-01-11T04:47:47;53.56;48.82;59.94;;
76339;Laerm;26644;50.248;19.032;2024-01-11T04:50:55;53.91;50.81;59.65;;
76339;Laerm;26644;50.248;19.032;2024-01-11T04:53:59;54.05;50.53;58.10;;
76339;Laerm;26644;50.248;19.032;2024-01-11T04:57:04;53.46;49.02;57.39;;
76339;Laerm;26644;50.248;19.032;2024-01-11T05:00:13;53.84;49.74;57.26;;
76339;Laerm;26644;50.248;19.032;2024-01-11T05:03:18;53.59;48.93;61.83;;
76339;Laerm;26644;50.248;19.032;2024-01-11T05:06:23;53.69;50.48;58.72;;
76339;Laerm;26644;50.248;19.032;2024-01-11T05:09:29;54.55;49.62;60.63;;
76339;Laerm;26644;50.248;19.032;2024-01-11T05:12:33;54.69;50.99;61.88;;
76339;Laerm;26644;50.248;19.032;2024-01-11T05:15:41;54.32;50.42;60.53;;
76339;Laerm;26644;50.248;19.032;2024-01-11T05:18:46;54.71;50.85;58.70;;
76339;Laerm;26644;50.248;19.032;2024-01-11T05:21:51;54.95;50.88;62.53;;
76339;Laerm;26644;50.248;19.032;2024-01-11T05:24:55;56.18;52.63;61.21;;
76339;Laerm;26644;50.248;19.032;2024-01-11T05:28:02;56.74;52.09;70.82;;
76339;Laerm;26644;50.248;19.032;2024-01-11T05:31:12;58.42;52.13;74.27;;
76339;Laerm;26644;50.248;19.032;2024-01-11T05:34:18;55.99;52.48;62.51;;
76339;Laerm;26644;50.248;19.032;2024-01-11T05:37:22;56.64;52.53;64.27;;
76339;Laerm;26644;50.248;19.032;2024-01-11T05:40:27;56.03;52.28;60.47;;
76339;Laerm;26644;50.248;19.032;2024-01-11T05:43:32;55.55;51.75;59.30;;
76339;Laerm;26644;50.248;19.032;2024-01-11T05:46:40;56.99;51.82;75.56;;
76339;Laerm;26644;50.248;19.032;2024-01-11T05:49:45;56.25;52.60;59.93;;
76339;Laerm;26644;50.248;19.032;2024-01-11T05:52:51;56.27;52.57;60.62;;
76339;Laerm;26644;50.248;19.032;2024-01-11T05:55:57;56.50;53.02;61.47;;
76339;Laerm;26644;50.248;19.032;2024-01-11T05:59:03;56.19;52.86;65.48;;
76339;Laerm;26644;50.248;19.032;2024-01-11T06:02:10;55.07;51.33;59.70;;
76339;Laerm;26644;50.248;19.032;2024-01-11T06:05:15;55.82;51.95;61.35;;
76339;Laerm;26644;50.248;19.032;2024-01-11T06:08:20;54.96;51.14;61.46;;
76339;Laerm;26644;50.248;19.032;2024-01-11T06:11:25;55.63;51.99;66.19;;
76339;Laerm;26644;50.248;19.032;2024-01-11T06:14:31;55.58;51.89;60.96;;
76339;Laerm;26644;50.248;19.032;2024-01-11T06:17:39;55.08;52.17;65.72;;
76339;Laerm;26644;50.248;19.032;2024-01-11T06:20:43;54.59;51.42;63.32;;
76339;Laerm;26644;50.248;19.032;2024-01-11T06:23:48;55.86;52.61;65.67;;
76339;Laerm;26644;50.248;19.032;2024-01-11T06:26:53;55.47;51.47;58.89;;
76339;Laerm;26644;50.248;19.032;2024-01-11T06:29:58;55.86;52.20;63.27;;
76339;Laerm;26644;50.248;19.032;2024-01-11T06:33:06;56.07;52.76;63.20;;
76339;Laerm;26644;50.248;19.032;2024-01-11T06:36:11;55.73;52.02;65.21;;
76339;Laerm;26644;50.248;19.032;2024-01-11T06:39:15;56.45;52.38;63.53;;
76339;Laerm;26644;50.248;19.032;2024-01-11T06:42:21;56.41;52.47;71.78;;
76339;Laerm;26644;50.248;19.032;2024-01-11T06:45:25;56.73;52.79;62.62;;
76339;Laerm;26644;50.248;19.032;2024-01-11T06:48:33;57.58;53.31;68.50;;
76339;Laerm;26644;50.248;19.032;2024-01-11T06:51:38;57.55;53.78;67.73;;
76339;Laerm;26644;50.248;19.032;2024-01-11T06:54:43;56.75;53.74;66.13;;
76339;Laerm;26644;50.248;19.032;2024-01-11T06:57:48;57.18;52.86;68.36;;
76339;Laerm;26644;50.248;19.032;2024-01-11T07:00:53;56.49;53.08;60.22;;
76339;Laerm;26644;50.248;19.032;2024-01-11T07:04:00;57.09;53.09;65.90;;
76339;Laerm;26644;50.248;19.032;2024-01-11T07:07:05;57.03;53.55;66.54;;
76339;Laerm;26644;50.248;19.032;2024-01-11T07:10:10;56.47;51.89;68.57;;
76339;Laerm;26644;50.248;19.032;2024-01-11T07:13:15;57.09;53.19;66.77;;
76339;Laerm;26644;50.248;19.032;2024-01-11T07:16:20;57.35;53.59;64.71;;
76339;Laerm;26644;50.248;19.032;2024-01-11T07:19:28;57.03;53.06;65.74;;
76339;Laerm;26644;50.248;19.032;2024-01-11T07:22:32;56.13;52.83;61.86;;
76339;Laerm;26644;50.248;19.032;2024-01-11T07:25:37;55.83;51.90;71.06;;
76339;Laerm;26644;50.248;19.032;2024-01-11T07:28:42;55.56;52.10;61.02;;
76339;Laerm;26644;50.248;19.032;2024-01-11T07:31:47;55.56;52.83;59.32;;
76339;Laerm;26644;50.248;19.032;2024-01-11T07:34:54;55.46;51.50;62.85;;
76339;Laerm;26644;50.248;19.032;2024-01-11T07:38:00;55.89;51.71;63.09;;
76339;Laerm;26644;50.248;19.032;2024-01-11T07:41:04;54.85;51.38;59.02;;
76339;Laerm;26644;50.248;19.032;2024-01-11T07:44:10;55.15;51.57;60.20;;
76339;Laerm;26644;50.248;19.032;2024-01-11T07:47:14;55.38;52.11;60.89;;
76339;Laerm;26644;50.248;19.032;2024-01-11T07:50:22;56.23;51.89;63.59;;
76339;Laerm;26644;50.248;19.032;2024-01-11T07:53:27;55.93;51.39;60.40;;
76339;Laerm;26644;50.248;19.032;2024-01-11T07:56:33;55.87;52.53;62.56;;
76339;Laerm;26644;50.248;19.032;2024-01-11T07:59:38;55.87;52.71;64.40;;
76339;Laerm;26644;50.248;19.032;2024-01-11T08:02:43;56.01;52.21;71.80;;
76339;Laerm;26644;50.248;19.032;2024-01-11T08:05:50;56.32;52.48;63.11;;
76339;Laerm;26644;50.248;19.032;2024-01-11T08:08:55;56.00;52.18;64.85;;
76339;Laerm;26644;50.248;19.032;2024-01-11T08:12:00;56.40;52.62;66.65;;
76339;Laerm;26644;50.248;19.032;2024-01-11T08:15:06;56.34;51.62;63.60;;
76339;Laerm;26644;50.248;19.032;2024-01-11T08:18:13;55.33;52.24;64.61;;
76339;Laerm;26644;50.248;19.032;2024-01-11T08:21:21;55.56;51.58;61.80;;
76339;Laerm;26644;50.248;19.032;2024-01-11T08:24:26;56.41;52.04;63.92;;
76339;Laerm;26644;50.248;19.032;2024-01-11T08:27:31;56.03;52.74;60.41;;
76339;Laerm;26644;50.248;19.032;2024-01-11T08:30:36;55.34;51.60;63.59;;
76339;Laerm;26644;50.248;19.032;2024-01-11T08:33:42;56.05;52.50;62.09;;
76339;Laerm;26644;50.248;19.032;2024-01-11T08:36:49;55.93;52.43;69.75;;
76339;Laerm;26644;50.248;19.032;2024-01-11T08:39:54;56.04;52.54;68.90;;
76339;Laerm;26644;50.248;19.032;2024-01-11T08:42:59;56.37;51.90;63.47;;
76339;Laerm;26644;50.248;19.032;2024-01-11T08:46:05;55.92;52.60;60.36;;
76339;Laerm;26644;50.248;19.032;2024-01-11T08:49:10;55.24;51.11;61.34;;
76339;Laerm;26644;50.248;19.032;2024-01-11T08:52:18;54.99;51.54;61.03;;
76339;Laerm;26644;50.248;19.032;2024-01-11T08:55:24;56.05;52.03;60.22;;
76339;Laerm;26644;50.248;19.032;2024-01-11T08:58:29;55.21;51.62;67.83;;
76339;Laerm;26644;50.248;19.032;2024-01-11T09:01:34;55.04;51.69;62.30;;
76339;Laerm;26644;50.248;19.032;2024-01-11T09:04:39;55.00;51.74;61.26;;
76339;Laerm;26644;50.248;19.032;2024-01-11T09:07:46;56.19;52.85;61.17;;
76339;Laerm;26644;50.248;19.032;2024-01-11T09:10:51;54.53;50.79;60.76;;
76339;Laerm;26644;50.248;19.032;2024-01-11T09:13:56;54.85;50.43;69.59;;
76339;Laerm;26644;50.248;19.032;2024-01-11T09:17:02;54.57;51.25;69.21;;
76339;Laerm;26644;50.248;19.032;2024-01-11T09:20:09;54.49;50.99;60.05;;
76339;Laerm;26644;50.248;19.032;2024-01-11T09:23:19;55.00;50.73;60.56;;
76339;Laerm;26644;50.248;19.032;2024-01-11T09:26:23;54.37;50.80;61.54;;
76339;Laerm;26644;50.248;19.032;2024-01-11T09:29:28;55.08;51.15;63.10;;
76339;Laerm;26644;50.248;19.032;2024-01-11T09:32:33;54.77;50.86;59.44;;
76339;Laerm;26644;50.248;19.032;2024-01-11T09:35:38;55.47;51.32;60.87;;
76339;Laerm;26644;50.248;19.032;2024-01-11T09:38:45;55.35;51.67;64.44;;
76339;Laerm;26644;50.248;19.032;2024-01-11T09:41:58;55.18;51.53;69.14;;
76339;Laerm;26644;50.248;19.032;2024-01-11T09:45:12;55.03;50.91;61.73;;
76339;Laerm;26644;50.248;19.032;2024-01-11T09:48:21;55.67;51.79;64.29;;
76339;Laerm;26644;50.248;19.032;2024-01-11T09:51:28;56.20;52.02;64.82;;
76339;Laerm;26644;50.248;19.032;2024-01-11T09:54:37;56.08;51.74;68.03;;
76339;Laerm;26644;50.248;19.032;2024-01-11T09:57:45;55.72;52.45;67.24;;
76339;Laerm;26644;50.248;19.032;2024-01-11T10:00:55;54.62;50.92;65.09;;
76339;Laerm;26644;50.248;19.032;2024-01-11T10:04:03;54.65;51.19;63.17;;
76339;Laerm;26644;50.248;19.032;2024-01-11T10:07:09;55.18;51.54;61.67;;
76339;Laerm;26644;50.248;19.032;2024-01-11T10:10:19;55.69;51.08;67.44;;
76339;Laerm;26644;50.248;19.032;2024-01-11T10:13:28;55.62;51.45;62.24;;
76339;Laerm;26644;50.248;19.032;2024-01-11T10:16:34;56.03;51.66;59.83;;
76339;Laerm;26644;50.248;19.032;2024-01-11T10:19:39;55.26;51.64;69.97;;
76339;Laerm;26644;50.248;19.032;2024-01-11T10:22:47;56.00;52.00;70.75;;
76339;Laerm;26644;50.248;19.032;2024-01-11T10:25:56;54.83;51.28;61.60;;
76339;Laerm;26644;50.248;19.032;2024-01-11T10:29:01;55.47;51.78;64.69;;
76339;Laerm;26644;50.248;19.032;2024-01-11T10:32:13;55.34;51.73;61.57;;
76339;Laerm;26644;50.248;19.032;2024-01-11T10:35:17;56.23;52.96;64.42;;
76339;Laerm;26644;50.248;19.032;2024-01-11T10:38:26;56.73;51.75;71.28;;
76339;Laerm;26644;50.248;19.032;2024-01-11T10:41:40;56.81;51.84;74.93;;
76339;Laerm;26644;50.248;19.032;2024-01-11T10:44:48;55.38;52.14;64.26;;
76339;Laerm;26644;50.248;19.032;2024-01-11T10:48:02;55.66;51.88;66.92;;
76339;Laerm;26644;50.248;19.032;2024-01-11T10:51:12;56.01;52.69;63.93;;
76339;Laerm;26644;50.248;19.032;2024-01-11T10:54:21;55.05;51.25;64.84;;
76339;Laerm;26644;50.248;19.032;2024-01-11T10:57:33;55.57;51.17;61.95;;
76339;Laerm;26644;50.248;19.032;2024-01-11T11:00:38;57.33;51.26;74.99;;
76339;Laerm;26644;50.248;19.032;2024-01-11T11:03:44;55.33;51.96;59.89;;
76339;Laerm;26644;50.248;19.032;2024-01-11T11:06:55;56.83;51.76;71.44;;
76339;Laerm;26644;50.248;19.032;2024-01-11T11:10:02;55.57;50.86;61.15;;
76339;Laerm;26644;50.248;19.032;2024-01-11T11:13:15;56.01;51.46;68.30;;
76339;Laerm;26644;50.248;19.032;2024-01-11T11:16:21;56.30;52.87;69.41;;
76339;Laerm;26644;50.248;19.032;2024-01-11T11:19:27;55.38;52.25;60.36;;
76339;Laerm;26644;50.248;19.032;2024-01-11T11:22:34;55.29;51.61;62.94;;
76339;Laerm;26644;50.248;19.032;2024-01-11T11:25:41;54.96;50.98;68.51;;
76339;Laerm;26644;50.248;19.032;2024-01-11T11:28:49;54.07;50.08;58.42;;
76339;Laerm;26644;50.248;19.032;2024-01-11T11:31:54;55.14;51.35;62.99;;
76339;Laerm;26644;50.248;19.032;2024-01-11T11:34:59;55.24;52.05;59.97;;
76339;Laerm;26644;50.248;19.032;2024-01-11T11:38:05;55.07;51.30;63.60;;
76339;Laerm;26644;50.248;19.032;2024-01-11T11:41:13;55.28;51.68;63.11;;
76339;Laerm;26644;50.248;19.032;2024-01-11T11:44:24;55.34;50.79;69.22;;
76339;Laerm;26644;50.248;19.032;2024-01-11T11:47:35;55.17;51.11;67.90;;
76339;Laerm;26644;50.248;19.032;2024-01-11T11:50:39;55.47;50.41;65.53;;
76339;Laerm;26644;50.248;19.032;2024-01-11T11:53:47;54.41;50.73;62.65;;
76339;Laerm;26644;50.248;19.032;2024-01-11T11:56:52;54.66;51.20;62.86;;
76339;Laerm;26644;50.248;19.032;2024-01-11T12:00:01;54.48;50.39;64.12;;
76339;Laerm;26644;50.248;19.032;2024-01-11T12:03:13;54.19;50.23;63.14;;
76339;Laerm;26644;50.248;19.032;2024-01-11T12:06:21;54.67;50.70;64.41;;
76339;Laerm;26644;50.248;19.032;2024-01-11T12:09:26;54.13;50.09;64.30;;
76339;Laerm;26644;50.248;19.032;2024-01-11T12:12:31;54.57;50.87;58.53;;
76339;Laerm;26644;50.248;19.032;2024-01-11T12:15:38;54.80;51.58;64.02;;
76339;Laerm;26644;50.248;19.032;2024-01-11T12:18:44;55.72;50.58;72.68;;
76339;Laerm;26644;50.248;19.032;2024-01-11T12:21:50;55.43;51.73;64.34;;
76339;Laerm;26644;50.248;19.032;2024-01-11T12:24:57;54.73;51.14;60.08;;
76339;Laerm;26644;50.248;19.032;2024-01-11T12:28:02;55.97;52.25;62.10;;
76339;Laerm;26644;50.248;19.032;2024-01-11T12:31:11;55.08;51.09;67.59;;
76339;Laerm;26644;50.248;19.032;2024-01-11T12:34:16;56.03;51.97;68.05;;
76339;Laerm;26644;50.248;19.032;2024-01-11T12:37:22;56.22;50.85;71.44;;
76339;Laerm;26644;50.248;19.032;2024-01-11T12:40:28;55.42;50.47;60.81;;
76339;Laerm;26644;50.248;19.032;2024-01-11T12:43:37;55.09;51.62;61.56;;
76339;Laerm;26644;50.248;19.032;2024-01-11T12:46:44;56.28;51.69;69.57;;
76339;Laerm;26644;50.248;19.032;2024-01-11T12:49:50;54.73;50.06;70.63;;
76339;Laerm;26644;50.248;19.032;2024-01-11T12:53:09;54.63;51.06;60.45;;
76339;Laerm;26644;50.248;19.032;2024-01-11T12:56:20;54.44;50.85;59.46;;
76339;Laerm;26644;50.248;19.032;2024-01-11T12:59:26;54.67;50.85;64.63;;
76339;Laerm;26644;50.248;19.032;2024-01-11T13:02:34;55.95;51.58;70.24;;
76339;Laerm;26644;50.248;19.032;2024-01-11T13:05:38;56.14;52.53;60.54;;
76339;Laerm;26644;50.248;19.032;2024-01-11T13:08:44;56.96;53.13;67.90;;
76339;Laerm;26644;50.248;19.032;2024-01-11T13:11:49;56.07;52.43;69.42;;
76339;Laerm;26644;50.248;19.032;2024-01-11T13:14:54;55.16;51.38;59.49;;
76339;Laerm;26644;50.248;19.032;2024-01-11T13:18:02;56.21;51.64;64.49;;
76339;Laerm;26644;50.248;19.032;2024-01-11T13:21:07;55.62;52.09;63.80;;
76339;Laerm;26644;50.248;19.032;2024-01-11T13:24:13;56.01;52.33;59.14;;
76339;Laerm;26644;50.248;19.032;2024-01-11T13:27:19;55.82;52.51;61.20;;
76339;Laerm;26644;50.248;19.032;2024-01-11T13:30:24;55.97;52.18;62.11;;
76339;Laerm;26644;50.248;19.032;2024-01-11T13:33:32;56.06;53.04;60.13;;
76339;Laerm;26644;50.248;19.032;2024-01-11T13:36:36;55.25;51.86;60.25;;
76339;Laerm;26644;50.248;19.032;2024-01-11T13:39:41;55.58;52.30;75.50;;
76339;Laerm;26644;50.248;19.032;2024-01-11T13:42:46;56.19;52.95;69.27;;
76339;Laerm;26644;50.248;19.032;2024-01-11T13:45:51;56.42;52.64;68.71;;
76339;Laerm;26644;50.248;19.032;2024-01-11T13:48:58;56.24;52.42;68.58;;
76339;Laerm;26644;50.248;19.032;2024-01-11T13:52:05;55.52;51.90;66.42;;
76339;Laerm;26644;50.248;19.032;2024-01-11T13:55:10;55.56;52.14;67.25;;
76339;Laerm;26644;50.248;19.032;2024-01-11T13:58:15;56.55;52.84;65.02;;
76339;Laerm;26644;50.248;19.032;2024-01-11T14:01:20;55.40;51.29;72.23;;
76339;Laerm;26644;50.248;19.032;2024-01-11T14:04:28;55.54;51.65;66.78;;
76339;Laerm;26644;50.248;19.032;2024-01-11T14:07:32;54.80;51.60;62.59;;
76339;Laerm;26644;50.248;19.032;2024-01-11T14:10:38;54.88;51.55;57.99;;
76339;Laerm;26644;50.248;19.032;2024-01-11T14:13:42;55.77;52.35;60.26;;
76339;Laerm;26644;50.248;19.032;2024-01-11T14:16:48;55.82;51.67;59.04;;
76339;Laerm;26644;50.248;19.032;2024-01-11T14:19:55;55.13;50.87;60.16;;
76339;Laerm;26644;50.248;19.032;2024-01-11T14:23:00;55.47;52.00;67.85;;
76339;Laerm;26644;50.248;19.032;2024-01-11T14:26:05;56.01;51.66;66.13;;
76339;Laerm;26644;50.248;19.032;2024-01-11T14:29:11;55.84;51.95;65.26;;
76339;Laerm;26644;50.248;19.032;2024-01-11T14:32:16;55.68;52.08;64.73;;
76339;Laerm;26644;50.248;19.032;2024-01-11T14:35:24;55.58;52.23;62.71;;
76339;Laerm;26644;50.248;19.032;2024-01-11T14:38:29;55.02;51.69;61.84;;
76339;Laerm;26644;50.248;19.032;2024-01-11T14:41:34;54.35;51.58;58.55;;
76339;Laerm;26644;50.248;19.032;2024-01-11T14:44:39;55.43;51.21;67.49;;
76339;Laerm;26644;50.248;19.032;2024-01-11T14:47:44;55.11;51.88;62.08;;
76339;Laerm;26644;50.248;19.032;2024-01-11T14:50:51;54.29;50.98;61.51;;
76339;Laerm;26644;50.248;19.032;2024-01-11T14:53:57;54.45;50.99;60.65;;
76339;Laerm;26644;50.248;19.032;2024-01-11T14:57:01;57.77;51.36;80.94;;
76339;Laerm;26644;50.248;19.032;2024-01-11T15:00:09;55.67;52.10;70.06;;
76339;Laerm;26644;50.248;19.032;2024-01-11T15:03:14;54.99;51.19;64.12;;
76339;Laerm;26644;50.248;19.032;2024-01-11T15:06:23;55.14;50.67;64.27;;
76339;Laerm;26644;50.248;19.032;2024-01-11T15:09:27;54.44;50.40;64.97;;
76339;Laerm;26644;50.248;19.032;2024-01-11T15:12:34;54.94;51.57;61.87;;
76339;Laerm;26644;50.248;19.032;2024-01-11T15:15:38;54.65;51.16;61.90;;
76339;Laerm;26644;50.248;19.032;2024-01-11T15:18:43;54.04;50.62;57.22;;
76339;Laerm;26644;50.248;19.032;2024-01-11T15:21:51;54.75;51.32;61.07;;
76339;Laerm;26644;50.248;19.032;2024-01-11T15:24:56;53.81;50.82;61.79;;
76339;Laerm;26644;50.248;19.032;2024-01-11T15:28:01;54.54;50.94;63.97;;
76339;Laerm;26644;50.248;19.032;2024-01-11T15:31:06;54.81;51.52;62.20;;
76339;Laerm;26644;50.248;19.032;2024-01-11T15:34:11;54.86;51.79;58.62;;
76339;Laerm;26644;50.248;19.032;2024-01-11T15:37:19;54.53;51.02;62.64;;
76339;Laerm;26644;50.248;19.032;2024-01-11T15:40:25;56.58;50.91;67.46;;
76339;Laerm;26644;50.248;19.032;2024-01-11T15:43:30;54.26;50.57;59.08;;
76339;Laerm;26644;50.248;19.032;2024-01-11T15:46:35;55.21;51.47;62.64;;
76339;Laerm;26644;50.248;19.032;2024-01-11T15:49:40;54.44;51.26;58.27;;
76339;Laerm;26644;50.248;19.032;2024-01-11T15:52:47;54.58;50.68;64.72;;
76339;Laerm;26644;50.248;19.032;2024-01-11T15:55:53;54.70;51.01;63.85;;
76339;Laerm;26644;50.248;19.032;2024-01-11T15:58:57;55.06;51.06;66.97;;
76339;Laerm;26644;50.248;19.032;2024-01-11T16:02:03;54.15;49.86;61.55;;
76339;Laerm;26644;50.248;19.032;2024-01-11T16:05:10;53.59;50.08;66.20;;
76339;Laerm;26644;50.248;19.032;2024-01-11T16:08:17;54.70;50.99;61.73;;
76339;Laerm;26644;50.248;19.032;2024-01-11T16:11:22;54.75;52.02;58.98;;
76339;Laerm;26644;50.248;19.032;2024-01-11T16:14:27;56.39;51.04;70.15;;
76339;Laerm;26644;50.248;19.032;2024-01-11T16:17:32;55.61;50.79;68.50;;
76339;Laerm;26644;50.248;19.032;2024-01-11T16:20:37;54.20;50.36;58.26;;
76339;Laerm;26644;50.248;19.032;2024-01-11T16:23:44;54.37;50.45;58.57;;
76339;Laerm;26644;50.248;19.032;2024-01-11T16:26:50;54.47;51.18;63.06;;
76339;Laerm;26644;50.248;19.032;2024-01-11T16:29:54;54.65;51.25;59.71;;
76339;Laerm;26644;50.248;19.032;2024-01-11T16:33:00;54.36;50.48;59.59;;
76339;Laerm;26644;50.248;19.032;2024-01-11T16:36:06;54.04;50.53;59.97;;
76339;Laerm;26644;50.248;19.032;2024-01-11T16:39:14;53.48;49.94;59.42;;
76339;Laerm;26644;50.248;19.032;2024-01-11T16:42:19;54.01;50.57;59.50;;
76339;Laerm;26644;50.248;19.032;2024-01-11T16:45:26;54.08;49.89;59.37;;
76339;Laerm;26644;50.248;19.032;2024-01-11T16:48:33;53.19;49.30;58.89;;
76339;Laerm;26644;50.248;19.032;2024-01-11T16:51:42;53.35;49.98;56.57;;
76339;Laerm;26644;50.248;19.032;2024-01-11T16:54:49;54.18;50.18;58.84;;
76339;Laerm;26644;50.248;19.032;2024-01-11T16:57:54;53.74;50.29;59.87;;
76339;Laerm;26644;50.248;19.032;2024-01-11T17:01:00;54.26;50.54;59.69;;
76339;Laerm;26644;50.248;19.032;2024-01-11T17:04:05;54.11;50.26;59.17;;
76339;Laerm;26644;50.248;19.032;2024-01-11T17:07:10;54.22;50.92;59.57;;